Time;durP1;ratioP1;P1;durP2;ratioP2;P2;SDS_P1;SDS_P2;PMS_P1;PMS_P2;Temp;Humidity;BMP_temperature;BMP_pressure;BME280_temperature;BME280_humidity;BME280_pressure;Samples;Min_cycle;Max_cycle;Signal;HPM_P1;HPM_P2
2023/04/23 00:00:53;;;;;;;8.73;7.03;;;;;;;14.21;41.26;100428.50;5083535;23;20041;-79
2023/04/23 00:03:23;;;;;;;9.52;7.03;;;;;;;14.20;41.65;100432.28;5051283;28;20047;-80
2023/04/23 00:05:53;;;;;;;9.93;7.53;;;;;;;14.17;41.49;100429.00;5072853;28;20045;-79
2023/04/23 00:08:22;;;;;;;9.38;7.43;;;;;;;14.17;41.72;100432.63;5046718;28;20049;-79
2023/04/23 00:10:50;;;;;;;9.15;7.10;;;;;;;14.16;41.22;100433.66;5057940;28;20048;-80
2023/04/23 00:13:20;;;;;;;9.50;7.32;;;;;;;14.17;41.28;100438.13;5078884;28;20048;-81
2023/04/23 00:15:48;;;;;;;9.27;6.95;;;;;;;14.13;41.30;100428.47;5055022;28;20061;-80
2023/04/23 00:18:16;;;;;;;10.60;7.80;;;;;;;14.12;41.35;100425.88;5048619;28;20041;-80
2023/04/23 00:20:44;;;;;;;10.10;7.97;;;;;;;14.11;41.84;100426.91;5042969;28;20044;-80
2023/04/23 00:23:12;;;;;;;10.43;7.95;;;;;;;14.10;41.88;100422.47;5070122;28;20056;-80
2023/04/23 00:25:40;;;;;;;11.05;7.60;;;;;;;14.09;41.41;100427.09;5073509;28;20044;-80
2023/04/23 00:28:08;;;;;;;10.05;7.57;;;;;;;14.07;41.86;100418.16;5071332;28;20048;-80
2023/04/23 00:30:37;;;;;;;10.93;8.18;;;;;;;14.09;41.51;100427.09;5068361;28;20127;-79
2023/04/23 00:33:06;;;;;;;10.10;7.57;;;;;;;14.04;41.68;100426.72;5070685;28;20044;-80
2023/04/23 00:35:34;;;;;;;9.85;7.82;;;;;;;14.03;41.82;100425.00;5064148;28;20052;-81
2023/04/23 00:38:01;;;;;;;9.90;7.60;;;;;;;14.00;41.79;100420.72;5054323;28;20128;-79
2023/04/23 00:40:30;;;;;;;11.80;8.45;;;;;;;14.00;41.54;100425.34;5046224;28;20069;-81
2023/04/23 00:42:58;;;;;;;9.93;7.93;;;;;;;13.98;41.51;100425.50;5056122;28;20055;-80
2023/04/23 00:45:26;;;;;;;9.40;7.38;;;;;;;13.96;41.72;100416.56;5052419;28;20055;-79
2023/04/23 00:47:56;;;;;;;10.32;7.70;;;;;;;13.98;41.90;100419.16;5043336;28;20045;-81
2023/04/23 00:50:24;;;;;;;10.55;8.05;;;;;;;13.93;42.01;100416.91;5023493;28;20511;-80
2023/04/23 00:52:52;;;;;;;11.32;8.32;;;;;;;13.91;41.88;100413.47;5058033;28;20044;-80
2023/04/23 00:55:20;;;;;;;11.43;8.35;;;;;;;13.91;41.93;100405.22;5067812;28;20060;-80
2023/04/23 00:57:48;;;;;;;11.75;8.18;;;;;;;13.88;41.67;100405.53;5049958;28;20049;-81
2023/04/23 01:00:17;;;;;;;10.60;7.68;;;;;;;13.89;42.22;100417.41;5057062;28;20041;-78
2023/04/23 01:02:47;;;;;;;10.65;7.85;;;;;;;13.87;41.86;100413.94;5047662;28;20547;-78
2023/04/23 01:05:17;;;;;;;10.80;8.27;;;;;;;13.87;42.12;100408.44;5036537;28;20110;-79
2023/04/23 01:07:46;;;;;;;10.32;8.00;;;;;;;13.84;42.08;100406.03;5040791;28;20056;-78
2023/04/23 01:10:14;;;;;;;11.48;8.45;;;;;;;13.83;41.91;100402.44;5036385;28;20059;-80
2023/04/23 01:12:42;;;;;;;10.40;8.02;;;;;;;13.80;42.18;100400.00;5055745;28;20049;-79
2023/04/23 01:15:11;;;;;;;10.40;8.55;;;;;;;13.81;42.15;100401.72;5034558;28;20052;-79
2023/04/23 01:17:38;;;;;;;11.05;8.55;;;;;;;13.80;42.37;100401.88;5042089;28;20049;-80
2023/04/23 01:20:08;;;;;;;11.60;8.40;;;;;;;13.80;42.16;100402.75;5030809;28;20073;-79
2023/04/23 01:22:38;;;;;;;11.85;8.43;;;;;;;13.80;42.27;100397.25;5046999;28;20060;-78
2023/04/23 01:25:07;;;;;;;10.73;7.90;;;;;;;13.80;42.34;100396.38;5046893;28;20033;-78
2023/04/23 01:27:36;;;;;;;10.38;8.32;;;;;;;13.79;42.29;100391.91;5039274;28;20080;-78
2023/04/23 01:30:04;;;;;;;12.48;9.15;;;;;;;13.78;42.14;100387.44;5052527;28;20074;-80
2023/04/23 01:32:33;;;;;;;11.10;8.30;;;;;;;13.76;42.29;100392.25;5049333;28;20040;-79
2023/04/23 01:35:03;;;;;;;11.70;8.70;;;;;;;13.73;42.50;100393.44;5055987;28;20134;-79
2023/04/23 01:37:32;;;;;;;10.43;8.30;;;;;;;13.72;42.17;100397.22;5046161;28;20527;-80
2023/04/23 01:40:02;;;;;;;10.77;8.15;;;;;;;13.70;42.06;100395.66;5067503;28;20041;-79
2023/04/23 01:42:30;;;;;;;11.82;8.45;;;;;;;13.65;42.31;100385.16;5053419;28;20137;-81
2023/04/23 01:44:58;;;;;;;11.80;8.80;;;;;;;13.63;41.99;100390.81;5056065;28;20163;-81
2023/04/23 01:47:26;;;;;;;11.27;8.73;;;;;;;13.62;41.96;100394.59;5072259;28;20052;-80
2023/04/23 01:49:54;;;;;;;11.10;8.55;;;;;;;13.58;42.36;100389.59;5083161;28;20079;-79
2023/04/23 01:52:22;;;;;;;11.63;8.95;;;;;;;13.54;42.59;100380.78;5079456;28;20048;-80
2023/04/23 01:54:50;;;;;;;11.70;8.82;;;;;;;13.53;42.06;100383.72;5067033;28;20068;-79
2023/04/23 01:57:23;;;;;;;12.75;9.55;;;;;;;13.49;42.19;100385.94;5068807;28;20565;-78
2023/04/23 01:59:51;;;;;;;11.40;8.68;;;;;;;13.43;42.40;100385.72;5070578;28;20090;-79
2023/04/23 02:02:19;;;;;;;11.82;8.93;;;;;;;13.41;42.19;100382.28;5054975;28;20500;-79
2023/04/23 02:04:51;;;;;;;11.38;8.95;;;;;;;13.40;42.33;100383.28;5052064;28;20045;-78
2023/04/23 02:07:19;;;;;;;12.38;9.05;;;;;;;13.34;42.61;100384.81;5060247;28;20040;-79
2023/04/23 02:09:47;;;;;;;11.35;9.32;;;;;;;13.31;42.58;100378.78;5067840;28;20098;-79
2023/04/23 02:12:15;;;;;;;11.95;8.77;;;;;;;13.28;43.05;100385.50;5066202;28;20048;-80
2023/04/23 02:14:44;;;;;;;11.98;8.93;;;;;;;13.28;42.69;100391.00;5069942;28;20048;-79
2023/04/23 02:17:13;;;;;;;12.52;8.95;;;;;;;13.25;42.66;100383.91;5044770;28;20162;-79
2023/04/23 02:19:41;;;;;;;13.07;9.23;;;;;;;13.24;42.65;100381.31;5061912;28;20045;-79
2023/04/23 02:22:09;;;;;;;11.73;8.85;;;;;;;13.20;43.10;100375.28;5054576;28;20041;-79
2023/04/23 02:24:37;;;;;;;12.35;9.35;;;;;;;13.22;43.09;100378.75;5053840;28;20045;-79
2023/04/23 02:27:05;;;;;;;12.48;9.27;;;;;;;13.20;42.69;100388.19;5050085;28;20411;-79
2023/04/23 02:29:33;;;;;;;11.77;9.18;;;;;;;13.20;42.89;100386.28;5064471;28;20060;-79
2023/04/23 02:32:03;;;;;;;12.18;10.27;;;;;;;13.20;43.04;100379.94;5050940;28;20187;-80
2023/04/23 02:34:31;;;;;;;12.05;9.40;;;;;;;13.17;43.21;100380.25;5044704;28;20048;-79
2023/04/23 02:36:58;;;;;;;13.20;9.88;;;;;;;13.15;43.18;100379.56;5060382;28;20495;-80
2023/04/23 02:39:26;;;;;;;14.52;10.32;;;;;;;13.15;42.99;100380.41;5071015;28;20415;-79
2023/04/23 02:41:55;;;;;;;11.70;8.82;;;;;;;13.13;42.91;100384.34;5074536;28;20049;-80
2023/04/23 02:44:23;;;;;;;13.70;9.50;;;;;;;13.11;43.32;100383.66;5062985;28;20044;-79
2023/04/23 02:46:51;;;;;;;12.70;9.10;;;;;;;13.09;43.25;100375.59;5073282;28;20052;-79
2023/04/23 02:49:20;;;;;;;11.90;9.23;;;;;;;13.09;43.21;100372.84;5067824;28;20040;-78
2023/04/23 02:51:48;;;;;;;12.23;9.45;;;;;;;13.08;42.88;100375.75;5067362;28;20045;-81
2023/04/23 02:54:16;;;;;;;13.63;9.60;;;;;;;13.05;43.18;100368.66;5073513;28;20044;-82
2023/04/23 02:56:44;;;;;;;12.27;9.27;;;;;;;13.05;42.97;100378.81;5070787;28;20060;-81
2023/04/23 02:59:12;;;;;;;13.10;9.93;;;;;;;13.02;42.90;100371.75;5071332;28;20093;-81
2023/04/23 03:01:40;;;;;;;12.65;9.75;;;;;;;13.02;43.14;100368.16;5069076;28;20045;-82
2023/04/23 03:04:11;;;;;;;13.38;10.07;;;;;;;13.00;43.34;100372.94;5068667;28;20037;-80
2023/04/23 03:06:40;;;;;;;13.05;9.93;;;;;;;13.00;43.38;100370.19;5044404;28;20045;-81
2023/04/23 03:09:08;;;;;;;12.35;9.38;;;;;;;12.97;43.06;100368.63;5036864;28;20045;-79
2023/04/23 03:11:36;;;;;;;13.57;9.40;;;;;;;12.96;43.46;100364.16;5033037;28;20098;-81
2023/04/23 03:14:04;;;;;;;12.35;9.30;;;;;;;12.94;42.96;100362.59;5054380;28;20036;-80
2023/04/23 03:16:33;;;;;;;13.25;10.13;;;;;;;12.93;43.57;100352.66;5047458;28;20447;-80
2023/04/23 03:19:01;;;;;;;12.80;9.82;;;;;;;12.90;43.56;100359.31;5027941;28;20063;-79
2023/04/23 03:21:29;;;;;;;12.20;9.32;;;;;;;12.88;43.54;100362.22;5042526;28;20107;-79
2023/04/23 03:23:58;;;;;;;12.93;9.77;;;;;;;12.90;43.63;100358.44;5063113;28;20049;-78
2023/04/23 03:26:26;;;;;;;12.20;9.57;;;;;;;12.87;43.40;100356.91;5072351;28;20110;-80
2023/04/23 03:28:54;;;;;;;12.45;9.43;;;;;;;12.85;43.65;100357.06;5062015;28;20055;-80
2023/04/23 03:31:21;;;;;;;12.07;9.13;;;;;;;12.83;43.55;100350.88;5049562;28;20540;-79
2023/04/23 03:33:49;;;;;;;13.30;9.43;;;;;;;12.83;43.37;100352.75;5020093;28;20397;-79
2023/04/23 03:36:24;;;;;;;14.75;9.80;;;;;;;12.80;43.58;100350.31;5024960;28;20037;-79
2023/04/23 03:38:52;;;;;;;11.95;9.07;;;;;;;12.79;43.33;100346.69;5053393;28;20829;-80
2023/04/23 03:41:21;;;;;;;14.75;10.43;;;;;;;12.77;43.46;100343.28;5047135;28;20108;-79
2023/04/23 03:43:50;;;;;;;12.25;9.68;;;;;;;12.77;43.46;100353.41;5054782;28;20037;-79
2023/04/23 03:46:21;;;;;;;12.95;9.85;;;;;;;12.74;43.40;100345.47;5054658;28;20258;-78
2023/04/23 03:48:49;;;;;;;13.55;9.68;;;;;;;12.72;43.43;100347.50;5046644;28;20052;-79
2023/04/23 03:51:24;;;;;;;12.90;9.77;;;;;;;12.70;43.82;100341.34;5045980;28;20281;-80
2023/04/23 03:53:52;;;;;;;12.95;9.95;;;;;;;12.66;43.84;100335.28;5065551;28;20059;-80
2023/04/23 03:56:32;;;;;;;13.25;9.77;;;;;;;12.63;43.48;100332.84;5069277;28;20365;-80
2023/04/23 03:59:19;;;;;;;12.57;9.65;;;;;;;12.59;43.55;100336.94;5044801;28;20044;-80
2023/04/23 04:01:49;;;;;;;14.48;10.23;;;;;;;12.58;43.58;100337.09;5045156;28;20079;-81
2023/04/23 04:04:18;;;;;;;13.48;10.15;;;;;;;12.55;43.85;100349.22;5059335;28;20052;-80
2023/04/23 04:06:48;;;;;;;13.48;9.63;;;;;;;12.54;44.00;100344.78;5059065;28;20458;-80
2023/04/23 04:09:16;;;;;;;12.52;9.27;;;;;;;12.53;43.64;100345.81;5053859;28;20139;-81
2023/04/23 04:11:45;;;;;;;13.38;9.55;;;;;;;12.53;43.57;100348.56;5063764;28;20044;-80
2023/04/23 04:14:15;;;;;;;14.45;10.23;;;;;;;12.50;44.13;100338.75;5071898;28;20068;-80
2023/04/23 04:16:43;;;;;;;12.90;10.20;;;;;;;12.49;43.93;100344.38;5070263;28;20136;-79
2023/04/23 04:19:11;;;;;;;12.05;8.95;;;;;;;12.49;43.76;100336.16;5071265;28;20058;-78
2023/04/23 04:21:39;;;;;;;13.90;10.00;;;;;;;12.48;44.24;100340.78;5059631;28;20056;-79
2023/04/23 04:24:07;;;;;;;13.63;10.25;;;;;;;12.48;43.76;100343.53;5056177;28;20099;-80
2023/04/23 04:26:35;;;;;;;14.75;10.13;;;;;;;12.48;44.20;100339.91;5054103;28;20059;-77
2023/04/23 04:29:04;;;;;;;14.18;10.85;;;;;;;12.49;44.00;100339.75;5047186;28;20048;-79
2023/04/23 04:31:32;;;;;;;13.75;10.15;;;;;;;12.47;44.29;100336.31;5049426;28;20044;-80
2023/04/23 04:34:00;;;;;;;12.27;9.65;;;;;;;12.47;43.96;100327.22;5073710;28;20090;-78
2023/04/23 04:36:28;;;;;;;14.60;10.88;;;;;;;12.46;44.21;100326.34;5060852;28;20056;-77
2023/04/23 04:38:57;;;;;;;13.13;10.85;;;;;;;12.46;44.00;100328.22;5068913;28;20430;-77
2023/04/23 04:41:26;;;;;;;13.98;10.45;;;;;;;12.46;44.60;100329.09;5066909;28;20044;-79
2023/04/23 04:43:54;;;;;;;14.50;10.27;;;;;;;12.46;44.58;100329.09;5052873;28;20045;-78
2023/04/23 04:46:25;;;;;;;13.50;10.02;;;;;;;12.47;44.29;100332.69;5049717;28;20048;-78
2023/04/23 04:48:54;;;;;;;14.50;10.27;;;;;;;12.47;44.27;100338.19;5048717;28;20041;-79
2023/04/23 04:51:21;;;;;;;12.23;9.45;;;;;;;12.47;44.48;100347.28;5047848;28;20084;-78
2023/04/23 04:53:49;;;;;;;12.80;9.43;;;;;;;12.48;44.75;100346.28;5055044;28;20048;-79
2023/04/23 04:56:17;;;;;;;13.50;9.85;;;;;;;12.49;44.60;100350.75;5079846;28;20044;-77
2023/04/23 04:58:45;;;;;;;13.63;9.90;;;;;;;12.53;44.73;100355.94;5070485;28;20041;-77
2023/04/23 05:01:13;;;;;;;14.20;10.18;;;;;;;12.54;45.08;100352.16;5054685;28;20371;-78
2023/04/23 05:03:42;;;;;;;14.38;10.27;;;;;;;12.58;44.99;100350.81;5057836;28;20049;-77
2023/04/23 05:06:10;;;;;;;12.40;9.25;;;;;;;12.58;44.99;100362.66;5058356;28;20040;-77
2023/04/23 05:08:38;;;;;;;13.43;9.50;;;;;;;12.60;44.61;100349.63;5055928;28;20059;-78
2023/04/23 05:11:06;;;;;;;13.88;9.98;;;;;;;12.63;44.88;100356.69;5050075;28;20040;-79
2023/04/23 05:13:34;;;;;;;10.98;8.65;;;;;;;12.64;45.34;100353.81;5059841;28;20052;-78
2023/04/23 05:16:02;;;;;;;12.68;9.05;;;;;;;12.66;45.02;100351.78;5045454;28;20144;-79
2023/04/23 05:18:30;;;;;;;13.02;9.35;;;;;;;12.69;44.89;100354.19;5052881;28;20079;-78
2023/04/23 05:21:00;;;;;;;12.55;9.38;;;;;;;12.73;45.05;100354.72;5050997;28;20049;-78
2023/04/23 05:23:28;;;;;;;13.02;9.30;;;;;;;12.73;45.29;100350.09;5053460;28;20045;-78
2023/04/23 05:25:57;;;;;;;12.40;8.85;;;;;;;12.75;44.80;100345.31;5050795;28;20053;-78
2023/04/23 05:28:25;;;;;;;12.52;9.35;;;;;;;12.76;45.17;100340.69;5050375;28;20044;-78
2023/04/23 05:30:53;;;;;;;13.65;9.65;;;;;;;12.79;45.09;100348.59;5053656;28;20052;-78
2023/04/23 05:33:21;;;;;;;11.55;8.80;;;;;;;12.80;44.86;100347.56;5053618;28;20040;-79
2023/04/23 05:35:49;;;;;;;12.25;9.20;;;;;;;12.81;44.86;100346.53;5056079;28;20047;-79
2023/04/23 05:38:18;;;;;;;13.27;8.63;;;;;;;12.83;44.79;100348.13;5053311;28;20040;-79
2023/04/23 05:40:46;;;;;;;12.00;8.88;;;;;;;12.83;45.20;100347.25;5073669;28;20491;-79
2023/04/23 05:43:13;;;;;;;11.98;8.80;;;;;;;12.84;45.07;100348.97;5052972;28;20055;-79
2023/04/23 05:45:41;;;;;;;11.15;8.20;;;;;;;12.86;45.02;100356.03;5051371;28;20051;-79
2023/04/23 05:48:10;;;;;;;11.23;8.32;;;;;;;12.87;45.11;100352.25;5048696;28;20567;-78
2023/04/23 05:50:48;;;;;;;11.82;8.95;;;;;;;12.88;45.40;100353.09;5054759;28;20056;-79
2023/04/23 05:53:16;;;;;;;10.65;8.20;;;;;;;12.90;44.96;100355.69;5053007;28;20050;-78
2023/04/23 05:55:45;;;;;;;12.43;8.73;;;;;;;12.92;45.03;100364.66;5057805;28;20131;-80
2023/04/23 05:58:13;;;;;;;10.90;7.95;;;;;;;12.92;44.85;100362.75;5060770;28;20088;-80
2023/04/23 06:00:41;;;;;;;10.38;8.02;;;;;;;12.92;45.41;100351.78;5052274;28;20044;-80
2023/04/23 06:03:09;;;;;;;9.95;7.90;;;;;;;12.95;45.05;100354.22;5054577;28;20049;-81
2023/04/23 06:05:37;;;;;;;10.05;7.90;;;;;;;12.95;45.07;100347.84;5046868;28;20041;-80
2023/04/23 06:08:06;;;;;;;10.50;8.13;;;;;;;12.96;45.29;100350.41;5049221;28;20119;-81
2023/04/23 06:10:33;;;;;;;10.60;8.10;;;;;;;12.97;45.16;100346.66;5058615;28;20047;-81
2023/04/23 06:13:03;;;;;;;11.00;7.95;;;;;;;13.01;45.07;100347.19;5049701;28;20037;-80
2023/04/23 06:15:31;;;;;;;11.35;8.52;;;;;;;13.00;45.04;100339.97;5068117;28;20044;-79
2023/04/23 06:17:59;;;;;;;10.20;7.80;;;;;;;13.02;45.54;100343.44;5062358;28;20040;-78
2023/04/23 06:20:27;;;;;;;11.73;8.13;;;;;;;13.04;45.52;100352.34;5080040;28;20056;-78
2023/04/23 06:22:55;;;;;;;10.43;7.82;;;;;;;13.05;45.24;100346.69;5079348;28;20094;-79
2023/04/23 06:25:24;;;;;;;11.00;8.13;;;;;;;13.06;45.20;100345.69;5070735;28;20559;-79
2023/04/23 06:27:52;;;;;;;10.38;7.80;;;;;;;13.07;45.72;100339.16;5049655;28;20047;-79
2023/04/23 06:30:24;;;;;;;10.23;7.20;;;;;;;13.12;45.41;100345.00;5054612;28;20068;-79
2023/04/23 06:32:52;;;;;;;10.38;7.45;;;;;;;13.14;45.83;100339.38;5049785;28;20045;-78
2023/04/23 06:35:20;;;;;;;9.55;7.15;;;;;;;13.15;45.64;100341.94;5052273;28;20048;-78
2023/04/23 06:37:48;;;;;;;9.65;7.30;;;;;;;13.19;45.89;100346.13;5043501;28;20135;-77
2023/04/23 06:40:16;;;;;;;10.10;7.57;;;;;;;13.21;45.38;100334.94;5053294;28;20714;-77
2023/04/23 06:42:44;;;;;;;9.52;7.22;;;;;;;13.27;45.65;100352.66;5053016;28;20068;-77
2023/04/23 06:45:34;;;;;;;9.35;7.28;;;;;;;13.29;45.58;100340.47;5072307;28;20048;-77
2023/04/23 06:48:02;;;;;;;9.18;6.93;;;;;;;13.32;45.48;100348.38;5056353;28;20045;-77
2023/04/23 06:50:30;;;;;;;9.73;7.40;;;;;;;13.35;45.81;100342.56;5048376;28;20144;-78
2023/04/23 06:52:58;;;;;;;10.00;7.35;;;;;;;13.38;45.62;100339.47;5054717;28;20080;-78
2023/04/23 06:55:26;;;;;;;10.18;7.15;;;;;;;13.41;45.24;100330.91;5051833;28;20171;-78
2023/04/23 06:57:54;;;;;;;10.27;7.13;;;;;;;13.44;45.64;100336.09;5047334;28;20508;-78
2023/04/23 07:00:22;;;;;;;7.97;6.45;;;;;;;13.48;45.50;100336.59;5045392;28;20045;-78
2023/04/23 07:02:52;;;;;;;8.60;6.32;;;;;;;13.53;45.38;100332.31;5048257;28;20053;-77
2023/04/23 07:05:20;;;;;;;8.32;6.45;;;;;;;13.55;45.68;100333.03;5054550;28;20488;-78
2023/04/23 07:07:51;;;;;;;8.23;6.47;;;;;;;13.59;45.42;100330.84;5054633;28;20052;-79
2023/04/23 07:10:19;;;;;;;8.30;6.55;;;;;;;13.63;45.81;100326.72;5073885;28;20045;-79
2023/04/23 07:12:48;;;;;;;9.25;6.30;;;;;;;13.67;45.52;100319.88;5057148;28;20641;-78
2023/04/23 07:15:16;;;;;;;10.05;6.50;;;;;;;13.70;45.54;100313.16;5056068;28;20033;-77
2023/04/23 07:17:44;;;;;;;8.38;6.35;;;;;;;13.74;45.48;100307.16;5053058;28;20045;-77
2023/04/23 07:20:13;;;;;;;7.70;5.93;;;;;;;13.81;45.85;100310.97;5070485;28;20044;-80
2023/04/23 07:22:41;;;;;;;7.88;5.72;;;;;;;13.84;45.85;100307.88;5054926;28;20539;-80
2023/04/23 07:25:09;;;;;;;6.90;5.80;;;;;;;13.89;45.97;100308.22;5055762;28;20033;-80
2023/04/23 07:27:37;;;;;;;8.32;5.65;;;;;;;13.95;45.65;100313.03;5058578;28;20056;-80
2023/04/23 07:30:06;;;;;;;7.50;5.88;;;;;;;14.02;45.73;100307.75;5057279;28;20072;-80
2023/04/23 07:32:34;;;;;;;7.90;5.55;;;;;;;14.07;45.51;100310.84;5050486;28;20111;-80
2023/04/23 07:35:03;;;;;;;8.52;6.05;;;;;;;14.14;45.86;100308.25;5055525;28;20036;-80
2023/04/23 07:37:33;;;;;;;7.60;6.00;;;;;;;14.23;45.79;100316.34;5056921;28;20045;-80
2023/04/23 07:40:01;;;;;;;7.55;5.90;;;;;;;14.29;45.84;100307.41;5051416;28;20048;-77
2023/04/23 07:42:29;;;;;;;6.93;5.57;;;;;;;14.38;46.15;100303.63;5056508;28;20087;-79
2023/04/23 07:44:57;;;;;;;5.90;5.22;;;;;;;14.50;45.86;100304.16;5054768;28;20126;-79
2023/04/23 07:47:25;;;;;;;7.25;5.15;;;;;;;14.59;45.97;100302.28;5069289;28;20041;-80
2023/04/23 07:49:53;;;;;;;6.45;5.25;;;;;;;14.70;45.62;100304.63;5049146;28;20111;-79
2023/04/23 07:52:20;;;;;;;8.23;5.75;;;;;;;14.83;45.76;100298.59;5055102;28;20063;-79
2023/04/23 07:54:50;;;;;;;6.60;5.20;;;;;;;14.95;45.74;100292.53;5060267;28;20036;-79
2023/04/23 07:57:17;;;;;;;7.40;5.15;;;;;;;15.05;45.64;100290.44;5057772;28;20044;-80
2023/04/23 07:59:45;;;;;;;5.80;4.88;;;;;;;15.17;45.64;100299.19;5072980;28;20047;-78
2023/04/23 08:02:13;;;;;;;7.07;5.00;;;;;;;15.28;45.33;100295.16;5078215;28;20097;-81
2023/04/23 08:04:41;;;;;;;6.07;4.82;;;;;;;15.42;45.44;100292.53;5074355;28;20041;-79
2023/04/23 08:07:10;;;;;;;5.75;4.78;;;;;;;15.55;45.22;100285.59;5054076;28;20048;-81
2023/04/23 08:09:38;;;;;;;5.78;4.55;;;;;;;15.69;45.04;100284.81;5072798;28;20102;-81
2023/04/23 08:12:08;;;;;;;6.25;4.65;;;;;;;15.86;44.98;100286.44;5066418;28;20082;-79
2023/04/23 08:14:36;;;;;;;5.40;4.22;;;;;;;15.98;44.67;100281.38;5060013;28;20048;-78
2023/04/23 08:17:10;;;;;;;7.85;4.63;;;;;;;16.11;44.55;100285.22;5057764;28;20071;-79
2023/04/23 08:19:38;;;;;;;5.20;3.80;;;;;;;16.25;44.46;100281.69;5080353;28;20036;-80
2023/04/23 08:22:06;;;;;;;5.75;4.30;;;;;;;16.37;44.03;100273.84;5083690;28;20060;-79
2023/04/23 08:24:34;;;;;;;4.25;3.47;;;;;;;16.50;43.53;100268.53;5053104;28;20071;-78
2023/04/23 08:27:02;;;;;;;4.32;3.42;;;;;;;16.60;43.33;100271.03;5056759;28;20056;-78
2023/04/23 08:29:31;;;;;;;4.03;3.35;;;;;;;16.71;42.62;100281.63;5058147;28;20052;-79
2023/04/23 08:32:02;;;;;;;4.90;3.30;;;;;;;16.78;42.25;100274.28;5055338;28;20041;-79
2023/04/23 08:34:31;;;;;;;4.93;2.90;;;;;;;16.85;42.25;100266.97;5068876;28;20044;-78
2023/04/23 08:37:01;;;;;;;4.30;2.63;;;;;;;16.92;42.18;100278.97;5055914;28;20107;-78
2023/04/23 08:39:31;;;;;;;6.05;3.00;;;;;;;16.98;42.06;100271.88;5071732;28;20419;-79
2023/04/23 08:42:09;;;;;;;4.13;2.80;;;;;;;17.07;41.43;100272.63;5072169;28;20040;-79
2023/04/23 08:44:42;;;;;;;4.00;2.83;;;;;;;17.14;41.39;100271.69;5061589;28;20043;-79
2023/04/23 08:47:11;;;;;;;;;;;;;;;16.87;42.56;100269.53;5056465;28;20052;-78
2023/04/23 08:49:42;;;;;;;4.10;2.38;;;;;;;17.23;41.74;100275.19;5053174;28;20023;-76
2023/04/23 08:52:16;;;;;;;4.63;2.65;;;;;;;17.34;41.43;100263.63;5063109;28;20057;-77
2023/04/23 08:54:47;;;;;;;3.60;2.45;;;;;;;17.43;41.67;100267.16;5077024;28;21160;-76
2023/04/23 08:57:17;;;;;;;4.82;2.50;;;;;;;17.48;41.87;100264.69;5047773;28;20111;-77
2023/04/23 08:59:46;;;;;;;3.80;2.55;;;;;;;17.60;41.16;100276.94;5047294;28;20094;-77
2023/04/23 09:02:16;;;;;;;3.45;2.22;;;;;;;17.68;40.95;100276.81;5045033;28;20119;-77
2023/04/23 09:04:46;;;;;;;3.50;2.22;;;;;;;17.74;40.82;100268.63;5072602;28;20037;-77
2023/04/23 09:07:18;;;;;;;5.25;2.30;;;;;;;17.81;40.67;100260.44;5046656;28;20111;-77
2023/04/23 09:09:47;;;;;;;3.90;2.30;;;;;;;17.89;40.49;100257.53;5046190;28;20107;-77
2023/04/23 09:12:15;;;;;;;4.40;2.25;;;;;;;17.97;40.35;100257.41;5036798;28;20095;-77
2023/04/23 09:14:43;;;;;;;3.30;2.00;;;;;;;18.03;40.01;100259.38;5050214;28;20367;-77
2023/04/23 09:17:13;;;;;;;3.50;2.20;;;;;;;18.11;39.58;100252.84;5060612;28;20091;-77
2023/04/23 09:19:41;;;;;;;4.55;2.35;;;;;;;18.14;39.25;100247.75;5055723;28;20864;-76
2023/04/23 09:22:10;;;;;;;3.50;2.20;;;;;;;18.17;39.02;100240.97;5065488;28;20079;-77
2023/04/23 09:24:41;;;;;;;3.28;2.00;;;;;;;18.19;38.83;100236.09;5043660;28;20041;-76
2023/04/23 09:27:09;;;;;;;3.60;1.85;;;;;;;18.20;39.08;100240.56;5064260;28;20048;-77
2023/04/23 09:29:37;;;;;;;2.88;1.88;;;;;;;18.24;38.66;100244.66;5067072;28;20076;-76
2023/04/23 09:32:08;;;;;;;3.35;2.20;;;;;;;18.28;38.36;100245.97;5065449;28;21722;-76
2023/04/23 09:34:37;;;;;;;3.22;1.85;;;;;;;18.30;38.39;100243.88;5050574;28;20143;-77
2023/04/23 09:37:06;;;;;;;3.67;2.03;;;;;;;18.30;38.16;100246.63;5050069;28;20041;-77
2023/04/23 09:39:35;;;;;;;2.63;1.88;;;;;;;18.30;38.23;100240.25;5063774;28;20040;-77
2023/04/23 09:42:04;;;;;;;2.80;1.80;;;;;;;18.30;38.18;100231.94;5049304;28;20056;-76
2023/04/23 09:44:33;;;;;;;4.05;2.03;;;;;;;18.29;37.94;100225.53;5055075;28;20052;-76
2023/04/23 09:47:10;;;;;;;3.92;1.85;;;;;;;18.34;37.74;100223.00;5066169;28;20045;-77
2023/04/23 09:49:50;;;;;;;3.00;1.92;;;;;;;18.38;37.40;100226.25;5081366;28;20044;-77
2023/04/23 09:52:19;;;;;;;2.70;1.73;;;;;;;18.39;38.07;100225.19;5061119;28;20087;-75
2023/04/23 09:54:47;;;;;;;3.60;1.90;;;;;;;18.43;38.02;100215.41;5066655;28;20522;-75
2023/04/23 09:57:16;;;;;;;3.75;2.05;;;;;;;18.47;37.84;100220.31;5066625;28;20048;-75
2023/04/23 09:59:44;;;;;;;2.70;1.77;;;;;;;18.51;37.89;100215.28;5062102;28;20044;-77
2023/04/23 10:02:17;;;;;;;3.45;2.10;;;;;;;18.52;37.83;100208.69;5070993;28;20047;-76
2023/04/23 10:04:52;;;;;;;3.30;2.08;;;;;;;18.59;37.06;100201.28;5044535;28;20067;-77
2023/04/23 10:07:34;;;;;;;3.72;1.80;;;;;;;18.58;37.51;100202.31;5049385;28;20522;-77
2023/04/23 10:10:02;;;;;;;3.33;1.70;;;;;;;18.61;37.29;100192.75;5067117;28;20044;-77
2023/04/23 10:12:30;;;;;;;3.25;1.60;;;;;;;18.61;37.20;100184.44;5073707;28;20041;-76
2023/04/23 10:15:18;;;;;;;2.35;1.40;;;;;;;18.61;36.86;100188.06;5050933;28;20055;-76
2023/04/23 10:17:47;;;;;;;2.28;1.33;;;;;;;18.62;36.67;100189.78;5065221;28;20044;-76
2023/04/23 10:20:16;;;;;;;4.60;1.50;;;;;;;18.63;36.01;100188.75;5047281;28;20037;-76
2023/04/23 10:22:46;;;;;;;2.72;1.50;;;;;;;18.63;36.01;100171.25;5044264;28;20061;-76
2023/04/23 10:25:14;;;;;;;2.10;1.30;;;;;;;18.60;35.96;100180.81;5073058;28;20044;-76
2023/04/23 10:27:45;;;;;;;1.88;1.25;;;;;;;18.60;35.55;100177.19;5066331;28;20087;-76
2023/04/23 10:30:21;;;;;;;3.92;1.20;;;;;;;18.57;35.72;100177.59;5063397;28;20033;-76
2023/04/23 10:32:50;;;;;;;2.42;1.08;;;;;;;18.58;35.68;100187.63;5054897;28;20047;-76
2023/04/23 10:35:20;;;;;;;3.03;1.30;;;;;;;18.59;35.76;100183.78;5056832;28;20051;-76
2023/04/23 10:37:48;;;;;;;2.20;1.30;;;;;;;18.57;35.72;100181.22;5064933;28;20099;-76
2023/04/23 10:40:32;;;;;;;2.55;1.20;;;;;;;18.58;34.62;100174.63;5066957;28;20037;-76
2023/04/23 10:43:00;;;;;;;2.92;1.25;;;;;;;18.55;35.26;100177.81;5068476;28;20036;-75
2023/04/23 10:45:30;;;;;;;2.60;1.20;;;;;;;18.55;34.62;100172.28;5075433;28;20055;-75
2023/04/23 10:47:58;;;;;;;2.03;1.08;;;;;;;18.52;35.10;100170.75;5054382;28;20055;-76
2023/04/23 10:50:29;;;;;;;1.70;1.05;;;;;;;18.53;34.59;100166.06;5060612;28;20396;-77
2023/04/23 10:52:58;;;;;;;2.20;1.00;;;;;;;18.48;34.61;100161.13;5074217;28;21534;-77
2023/04/23 10:55:27;;;;;;;2.42;1.13;;;;;;;18.48;34.49;100169.44;5075669;28;20040;-76
2023/04/23 10:58:00;;;;;;;2.28;1.13;;;;;;;18.45;34.44;100174.50;5051632;28;20099;-77
2023/04/23 11:00:42;;;;;;;2.28;1.20;;;;;;;18.43;33.90;100160.00;5053757;28;20444;-76
2023/04/23 11:03:31;;;;;;;2.92;1.10;;;;;;;18.37;33.83;100164.44;5045879;28;20132;-77
2023/04/23 11:06:03;;;;;;;2.80;1.80;;;;;;;18.38;33.36;100165.28;5062647;28;20063;-77
2023/04/23 11:08:32;;;;;;;3.03;1.30;;;;;;;18.33;33.77;100156.72;5060565;28;20043;-77
2023/04/23 11:11:00;;;;;;;3.78;1.30;;;;;;;18.32;34.12;100155.84;5080478;28;20399;-76
2023/04/23 11:13:30;;;;;;;3.05;1.10;;;;;;;18.33;33.97;100149.25;5076508;28;20048;-77
2023/04/23 11:16:17;;;;;;;2.92;1.20;;;;;;;18.29;33.30;100153.50;5057452;28;20053;-76
2023/04/23 11:18:56;;;;;;;2.92;1.30;;;;;;;18.32;33.52;100143.91;5084692;28;20102;-77
2023/04/23 11:21:56;;;;;;;2.15;1.15;;;;;;;18.30;33.54;100137.75;5054425;28;20048;-77
2023/04/23 11:24:24;;;;;;;1.40;0.98;;;;;;;18.33;34.16;100137.31;5053427;28;20139;-77
2023/04/23 11:26:53;;;;;;;1.73;0.90;;;;;;;18.38;33.75;100135.69;5056062;28;20056;-77
2023/04/23 11:29:22;;;;;;;2.45;1.00;;;;;;;18.41;33.45;100128.84;5071696;28;20045;-77